sensor_id;sensor_type;location;lat;lon;timestamp;P1;durP1;ratioP1;P2;durP2;ratioP2
22916;SDS011;11624;53.250;7.456;2023-07-31T00:01:39;11.15;;;3.85;;
22916;SDS011;11624;53.250;7.456;2023-07-31T00:04:07;10.52;;;3.50;;
22916;SDS011;11624;53.250;7.456;2023-07-31T00:06:37;11.73;;;3.35;;
22916;SDS011;11624;53.250;7.456;2023-07-31T00:09:06;8.05;;;3.00;;
22916;SDS011;11624;53.250;7.456;2023-07-31T00:11:34;9.43;;;3.25;;
22916;SDS011;11624;53.250;7.456;2023-07-31T00:14:03;8.10;;;2.95;;
22916;SDS011;11624;53.250;7.456;2023-07-31T00:16:31;7.30;;;2.60;;
22916;SDS011;11624;53.250;7.456;2023-07-31T00:19:00;6.22;;;2.38;;
22916;SDS011;11624;53.250;7.456;2023-07-31T00:21:28;7.93;;;2.60;;
22916;SDS011;11624;53.250;7.456;2023-07-31T00:23:58;8.30;;;2.58;;
22916;SDS011;11624;53.250;7.456;2023-07-31T00:26:26;6.53;;;2.58;;
22916;SDS011;11624;53.250;7.456;2023-07-31T00:28:54;6.75;;;2.35;;
22916;SDS011;11624;53.250;7.456;2023-07-31T00:31:23;10.77;;;2.85;;
22916;SDS011;11624;53.250;7.456;2023-07-31T00:33:51;7.93;;;2.60;;
22916;SDS011;11624;53.250;7.456;2023-07-31T00:36:20;8.20;;;2.42;;
22916;SDS011;11624;53.250;7.456;2023-07-31T00:38:48;7.35;;;2.35;;
22916;SDS011;11624;53.250;7.456;2023-07-31T00:41:18;6.13;;;2.10;;
22916;SDS011;11624;53.250;7.456;2023-07-31T00:43:47;10.93;;;2.30;;
22916;SDS011;11624;53.250;7.456;2023-07-31T00:46:16;7.32;;;2.28;;
22916;SDS011;11624;53.250;7.456;2023-07-31T00:48:44;6.28;;;2.35;;
22916;SDS011;11624;53.250;7.456;2023-07-31T00:51:13;7.00;;;2.60;;
22916;SDS011;11624;53.250;7.456;2023-07-31T00:53:42;6.85;;;2.25;;
22916;SDS011;11624;53.250;7.456;2023-07-31T00:56:10;6.65;;;2.22;;
22916;SDS011;11624;53.250;7.456;2023-07-31T00:58:41;5.20;;;1.98;;
22916;SDS011;11624;53.250;7.456;2023-07-31T01:01:09;9.23;;;2.50;;
22916;SDS011;11624;53.250;7.456;2023-07-31T01:03:38;5.82;;;2.30;;
22916;SDS011;11624;53.250;7.456;2023-07-31T01:06:10;7.55;;;2.33;;
22916;SDS011;11624;53.250;7.456;2023-07-31T01:08:44;6.15;;;2.13;;
22916;SDS011;11624;53.250;7.456;2023-07-31T01:11:19;6.32;;;2.28;;
22916;SDS011;11624;53.250;7.456;2023-07-31T01:13:54;9.10;;;2.50;;
22916;SDS011;11624;53.250;7.456;2023-07-31T01:16:23;8.32;;;2.35;;
22916;SDS011;11624;53.250;7.456;2023-07-31T01:18:53;9.25;;;2.75;;
22916;SDS011;11624;53.250;7.456;2023-07-31T01:21:22;4.85;;;2.20;;
22916;SDS011;11624;53.250;7.456;2023-07-31T01:24:15;5.57;;;2.13;;
22916;SDS011;11624;53.250;7.456;2023-07-31T01:26:51;8.55;;;2.35;;
22916;SDS011;11624;53.250;7.456;2023-07-31T01:29:25;7.88;;;2.38;;
22916;SDS011;11624;53.250;7.456;2023-07-31T01:32:07;7.15;;;2.50;;
22916;SDS011;11624;53.250;7.456;2023-07-31T01:34:38;4.72;;;2.08;;
22916;SDS011;11624;53.250;7.456;2023-07-31T01:37:08;8.32;;;2.70;;
22916;SDS011;11624;53.250;7.456;2023-07-31T01:39:37;9.27;;;2.80;;
22916;SDS011;11624;53.250;7.456;2023-07-31T01:42:06;7.60;;;2.72;;
22916;SDS011;11624;53.250;7.456;2023-07-31T01:44:35;6.85;;;2.35;;
22916;SDS011;11624;53.250;7.456;2023-07-31T01:47:04;7.55;;;2.30;;
22916;SDS011;11624;53.250;7.456;2023-07-31T01:49:32;9.07;;;2.50;;
22916;SDS011;11624;53.250;7.456;2023-07-31T01:52:01;6.72;;;2.45;;
22916;SDS011;11624;53.250;7.456;2023-07-31T01:54:29;9.02;;;2.80;;
22916;SDS011;11624;53.250;7.456;2023-07-31T01:56:57;7.72;;;2.90;;
22916;SDS011;11624;53.250;7.456;2023-07-31T01:59:27;5.28;;;2.42;;
22916;SDS011;11624;53.250;7.456;2023-07-31T02:01:55;10.93;;;2.83;;
22916;SDS011;11624;53.250;7.456;2023-07-31T02:04:23;6.45;;;2.67;;
22916;SDS011;11624;53.250;7.456;2023-07-31T02:06:52;8.27;;;2.90;;
22916;SDS011;11624;53.250;7.456;2023-07-31T02:09:20;8.93;;;2.80;;
22916;SDS011;11624;53.250;7.456;2023-07-31T02:11:48;6.78;;;2.60;;
22916;SDS011;11624;53.250;7.456;2023-07-31T02:14:16;8.98;;;2.85;;
22916;SDS011;11624;53.250;7.456;2023-07-31T02:16:46;6.32;;;2.42;;
22916;SDS011;11624;53.250;7.456;2023-07-31T02:19:14;6.90;;;2.65;;
22916;SDS011;11624;53.250;7.456;2023-07-31T02:21:43;8.95;;;2.75;;
22916;SDS011;11624;53.250;7.456;2023-07-31T02:24:11;8.25;;;2.75;;
22916;SDS011;11624;53.250;7.456;2023-07-31T02:26:39;7.25;;;2.33;;
22916;SDS011;11624;53.250;7.456;2023-07-31T02:29:08;5.57;;;2.38;;
22916;SDS011;11624;53.250;7.456;2023-07-31T02:31:36;6.18;;;2.30;;
22916;SDS011;11624;53.250;7.456;2023-07-31T02:34:06;10.63;;;2.85;;
22916;SDS011;11624;53.250;7.456;2023-07-31T02:36:34;8.23;;;2.60;;
22916;SDS011;11624;53.250;7.456;2023-07-31T02:39:03;6.25;;;2.00;;
22916;SDS011;11624;53.250;7.456;2023-07-31T02:41:31;5.40;;;2.33;;
22916;SDS011;11624;53.250;7.456;2023-07-31T02:43:59;4.70;;;2.10;;
22916;SDS011;11624;53.250;7.456;2023-07-31T02:46:27;7.75;;;2.10;;
22916;SDS011;11624;53.250;7.456;2023-07-31T02:48:55;6.65;;;2.28;;
22916;SDS011;11624;53.250;7.456;2023-07-31T02:51:25;5.10;;;1.90;;
22916;SDS011;11624;53.250;7.456;2023-07-31T02:53:53;5.13;;;1.92;;
22916;SDS011;11624;53.250;7.456;2023-07-31T02:56:21;8.52;;;2.08;;
22916;SDS011;11624;53.250;7.456;2023-07-31T02:58:49;4.82;;;1.65;;
22916;SDS011;11624;53.250;7.456;2023-07-31T03:01:17;5.53;;;1.88;;
22916;SDS011;11624;53.250;7.456;2023-07-31T03:03:45;6.57;;;2.08;;
22916;SDS011;11624;53.250;7.456;2023-07-31T03:06:14;4.97;;;1.77;;
22916;SDS011;11624;53.250;7.456;2023-07-31T03:08:43;8.70;;;1.95;;
22916;SDS011;11624;53.250;7.456;2023-07-31T03:11:11;5.53;;;1.85;;
22916;SDS011;11624;53.250;7.456;2023-07-31T03:13:39;4.03;;;1.60;;
22916;SDS011;11624;53.250;7.456;2023-07-31T03:16:07;4.93;;;1.70;;
22916;SDS011;11624;53.250;7.456;2023-07-31T03:18:36;4.32;;;1.58;;
22916;SDS011;11624;53.250;7.456;2023-07-31T03:21:04;5.10;;;1.95;;
22916;SDS011;11624;53.250;7.456;2023-07-31T03:23:32;3.17;;;1.58;;
22916;SDS011;11624;53.250;7.456;2023-07-31T03:26:03;4.65;;;1.80;;
22916;SDS011;11624;53.250;7.456;2023-07-31T03:28:35;4.03;;;1.70;;
22916;SDS011;11624;53.250;7.456;2023-07-31T03:31:03;2.45;;;1.35;;
22916;SDS011;11624;53.250;7.456;2023-07-31T03:33:32;4.72;;;1.70;;
22916;SDS011;11624;53.250;7.456;2023-07-31T03:36:00;4.32;;;1.70;;
22916;SDS011;11624;53.250;7.456;2023-07-31T03:38:29;2.42;;;1.42;;
22916;SDS011;11624;53.250;7.456;2023-07-31T03:40:57;3.17;;;1.30;;
22916;SDS011;11624;53.250;7.456;2023-07-31T03:43:27;3.03;;;1.30;;
22916;SDS011;11624;53.250;7.456;2023-07-31T03:45:55;1.77;;;1.13;;
22916;SDS011;11624;53.250;7.456;2023-07-31T03:48:24;2.55;;;1.33;;
22916;SDS011;11624;53.250;7.456;2023-07-31T03:50:53;3.25;;;1.40;;
22916;SDS011;11624;53.250;7.456;2023-07-31T03:53:21;2.78;;;1.27;;
22916;SDS011;11624;53.250;7.456;2023-07-31T03:55:49;2.10;;;1.20;;
22916;SDS011;11624;53.250;7.456;2023-07-31T03:58:17;3.65;;;1.27;;
22916;SDS011;11624;53.250;7.456;2023-07-31T04:00:47;2.13;;;1.30;;
22916;SDS011;11624;53.250;7.456;2023-07-31T04:03:15;3.53;;;1.30;;
22916;SDS011;11624;53.250;7.456;2023-07-31T04:05:43;1.98;;;1.30;;
22916;SDS011;11624;53.250;7.456;2023-07-31T04:08:12;2.85;;;1.23;;
22916;SDS011;11624;53.250;7.456;2023-07-31T04:10:40;2.85;;;1.38;;
22916;SDS011;11624;53.250;7.456;2023-07-31T04:13:08;3.00;;;1.40;;
22916;SDS011;11624;53.250;7.456;2023-07-31T04:15:36;2.70;;;1.40;;
22916;SDS011;11624;53.250;7.456;2023-07-31T04:18:05;4.18;;;1.65;;
22916;SDS011;11624;53.250;7.456;2023-07-31T04:20:33;2.47;;;1.45;;
22916;SDS011;11624;53.250;7.456;2023-07-31T04:23:02;4.28;;;1.50;;
22916;SDS011;11624;53.250;7.456;2023-07-31T04:25:30;3.65;;;1.52;;
22916;SDS011;11624;53.250;7.456;2023-07-31T04:27:58;5.40;;;1.30;;
22916;SDS011;11624;53.250;7.456;2023-07-31T04:30:26;4.10;;;1.25;;
22916;SDS011;11624;53.250;7.456;2023-07-31T04:32:54;2.75;;;1.40;;
22916;SDS011;11624;53.250;7.456;2023-07-31T04:35:24;1.77;;;1.25;;
22916;SDS011;11624;53.250;7.456;2023-07-31T04:37:52;2.65;;;1.25;;
22916;SDS011;11624;53.250;7.456;2023-07-31T04:40:20;3.92;;;1.30;;
22916;SDS011;11624;53.250;7.456;2023-07-31T04:42:49;2.85;;;1.40;;
22916;SDS011;11624;53.250;7.456;2023-07-31T04:45:17;4.13;;;1.83;;
22916;SDS011;11624;53.250;7.456;2023-07-31T04:47:45;3.13;;;1.50;;
22916;SDS011;11624;53.250;7.456;2023-07-31T04:50:13;2.95;;;1.30;;
22916;SDS011;11624;53.250;7.456;2023-07-31T04:52:43;1.70;;;1.05;;
22916;SDS011;11624;53.250;7.456;2023-07-31T04:55:11;4.13;;;1.25;;
22916;SDS011;11624;53.250;7.456;2023-07-31T04:57:39;3.15;;;1.40;;
22916;SDS011;11624;53.250;7.456;2023-07-31T05:00:07;3.65;;;1.63;;
22916;SDS011;11624;53.250;7.456;2023-07-31T05:02:36;2.63;;;1.42;;
22916;SDS011;11624;53.250;7.456;2023-07-31T05:05:04;2.50;;;1.23;;
22916;SDS011;11624;53.250;7.456;2023-07-31T05:07:32;2.42;;;1.17;;
22916;SDS011;11624;53.250;7.456;2023-07-31T05:10:02;3.92;;;1.50;;
22916;SDS011;11624;53.250;7.456;2023-07-31T05:12:30;3.33;;;1.45;;
22916;SDS011;11624;53.250;7.456;2023-07-31T05:14:58;2.85;;;1.42;;
22916;SDS011;11624;53.250;7.456;2023-07-31T05:17:26;3.10;;;1.33;;
22916;SDS011;11624;53.250;7.456;2023-07-31T05:19:54;2.55;;;1.10;;
22916;SDS011;11624;53.250;7.456;2023-07-31T05:22:22;2.20;;;1.23;;
22916;SDS011;11624;53.250;7.456;2023-07-31T05:24:50;3.40;;;1.45;;
22916;SDS011;11624;53.250;7.456;2023-07-31T05:27:21;4.75;;;1.88;;
22916;SDS011;11624;53.250;7.456;2023-07-31T05:29:50;2.70;;;1.02;;
22916;SDS011;11624;53.250;7.456;2023-07-31T05:32:18;2.45;;;1.20;;
22916;SDS011;11624;53.250;7.456;2023-07-31T05:34:46;3.33;;;1.38;;
22916;SDS011;11624;53.250;7.456;2023-07-31T05:37:14;2.72;;;1.25;;
22916;SDS011;11624;53.250;7.456;2023-07-31T05:39:42;3.85;;;1.17;;
22916;SDS011;11624;53.250;7.456;2023-07-31T05:42:10;2.30;;;1.40;;
22916;SDS011;11624;53.250;7.456;2023-07-31T05:44:40;2.85;;;1.20;;
22916;SDS011;11624;53.250;7.456;2023-07-31T05:47:08;2.08;;;1.38;;
22916;SDS011;11624;53.250;7.456;2023-07-31T05:49:36;2.10;;;1.15;;
22916;SDS011;11624;53.250;7.456;2023-07-31T05:52:04;1.52;;;1.00;;
22916;SDS011;11624;53.250;7.456;2023-07-31T05:54:32;4.13;;;1.45;;
22916;SDS011;11624;53.250;7.456;2023-07-31T05:57:01;3.42;;;1.30;;
22916;SDS011;11624;53.250;7.456;2023-07-31T05:59:29;1.50;;;1.00;;
22916;SDS011;11624;53.250;7.456;2023-07-31T06:02:00;2.42;;;1.27;;
22916;SDS011;11624;53.250;7.456;2023-07-31T06:04:28;2.83;;;1.20;;
22916;SDS011;11624;53.250;7.456;2023-07-31T06:06:57;3.22;;;1.00;;
22916;SDS011;11624;53.250;7.456;2023-07-31T06:09:25;1.88;;;0.90;;
22916;SDS011;11624;53.250;7.456;2023-07-31T06:11:53;3.05;;;1.30;;
22916;SDS011;11624;53.250;7.456;2023-07-31T06:14:21;2.40;;;1.05;;
22916;SDS011;11624;53.250;7.456;2023-07-31T06:16:49;2.88;;;1.25;;
22916;SDS011;11624;53.250;7.456;2023-07-31T06:19:19;3.80;;;1.30;;
22916;SDS011;11624;53.250;7.456;2023-07-31T06:21:48;4.80;;;1.40;;
22916;SDS011;11624;53.250;7.456;2023-07-31T06:24:16;2.40;;;1.17;;
22916;SDS011;11624;53.250;7.456;2023-07-31T06:26:47;1.45;;;1.02;;
22916;SDS011;11624;53.250;7.456;2023-07-31T06:29:15;1.70;;;1.00;;
22916;SDS011;11624;53.250;7.456;2023-07-31T06:31:43;1.55;;;1.00;;
22916;SDS011;11624;53.250;7.456;2023-07-31T06:34:11;1.30;;;0.90;;
22916;SDS011;11624;53.250;7.456;2023-07-31T06:36:41;1.75;;;1.00;;
22916;SDS011;11624;53.250;7.456;2023-07-31T06:39:09;1.45;;;0.80;;
22916;SDS011;11624;53.250;7.456;2023-07-31T06:41:37;4.78;;;1.30;;
22916;SDS011;11624;53.250;7.456;2023-07-31T06:44:09;2.03;;;1.00;;
22916;SDS011;11624;53.250;7.456;2023-07-31T06:46:37;1.33;;;0.77;;
22916;SDS011;11624;53.250;7.456;2023-07-31T06:49:06;2.42;;;1.10;;
22916;SDS011;11624;53.250;7.456;2023-07-31T06:51:34;3.47;;;0.95;;
22916;SDS011;11624;53.250;7.456;2023-07-31T06:54:06;4.88;;;1.20;;
22916;SDS011;11624;53.250;7.456;2023-07-31T06:56:35;3.63;;;1.10;;
22916;SDS011;11624;53.250;7.456;2023-07-31T06:59:06;2.08;;;0.90;;
22916;SDS011;11624;53.250;7.456;2023-07-31T07:01:34;2.67;;;1.10;;
22916;SDS011;11624;53.250;7.456;2023-07-31T07:04:02;1.50;;;0.85;;
22916;SDS011;11624;53.250;7.456;2023-07-31T07:06:31;3.00;;;1.00;;
22916;SDS011;11624;53.250;7.456;2023-07-31T07:08:59;1.83;;;0.63;;
22916;SDS011;11624;53.250;7.456;2023-07-31T07:11:28;2.75;;;0.80;;
22916;SDS011;11624;53.250;7.456;2023-07-31T07:13:56;1.42;;;0.77;;
22916;SDS011;11624;53.250;7.456;2023-07-31T07:16:24;3.50;;;1.20;;
22916;SDS011;11624;53.250;7.456;2023-07-31T07:18:52;4.85;;;1.30;;
22916;SDS011;11624;53.250;7.456;2023-07-31T07:21:30;4.30;;;1.27;;
22916;SDS011;11624;53.250;7.456;2023-07-31T07:23:58;3.58;;;1.30;;
22916;SDS011;11624;53.250;7.456;2023-07-31T07:26:26;4.70;;;1.70;;
22916;SDS011;11624;53.250;7.456;2023-07-31T07:28:56;5.72;;;1.42;;
22916;SDS011;11624;53.250;7.456;2023-07-31T07:31:27;6.70;;;1.90;;
22916;SDS011;11624;53.250;7.456;2023-07-31T07:33:55;7.95;;;2.33;;
22916;SDS011;11624;53.250;7.456;2023-07-31T07:36:23;10.68;;;2.85;;
22916;SDS011;11624;53.250;7.456;2023-07-31T07:38:51;10.18;;;2.72;;
22916;SDS011;11624;53.250;7.456;2023-07-31T07:41:19;13.88;;;3.90;;
22916;SDS011;11624;53.250;7.456;2023-07-31T07:43:49;17.55;;;4.25;;
22916;SDS011;11624;53.250;7.456;2023-07-31T07:46:17;21.63;;;4.43;;
22916;SDS011;11624;53.250;7.456;2023-07-31T07:48:47;18.42;;;4.57;;
22916;SDS011;11624;53.250;7.456;2023-07-31T07:51:23;18.17;;;4.40;;
22916;SDS011;11624;53.250;7.456;2023-07-31T07:54:18;25.15;;;5.35;;
22916;SDS011;11624;53.250;7.456;2023-07-31T07:56:47;18.05;;;4.93;;
22916;SDS011;11624;53.250;7.456;2023-07-31T07:59:17;21.95;;;4.95;;
22916;SDS011;11624;53.250;7.456;2023-07-31T08:01:45;21.08;;;5.28;;
22916;SDS011;11624;53.250;7.456;2023-07-31T08:04:13;18.85;;;4.80;;
22916;SDS011;11624;53.250;7.456;2023-07-31T08:06:41;17.75;;;5.35;;
22916;SDS011;11624;53.250;7.456;2023-07-31T08:09:10;15.98;;;5.25;;
22916;SDS011;11624;53.250;7.456;2023-07-31T08:11:38;18.75;;;5.65;;
22916;SDS011;11624;53.250;7.456;2023-07-31T08:14:06;22.27;;;5.72;;
22916;SDS011;11624;53.250;7.456;2023-07-31T08:16:35;15.02;;;4.80;;
22916;SDS011;11624;53.250;7.456;2023-07-31T08:19:04;25.38;;;6.10;;
22916;SDS011;11624;53.250;7.456;2023-07-31T08:21:33;19.70;;;6.10;;
22916;SDS011;11624;53.250;7.456;2023-07-31T08:24:01;18.08;;;6.15;;
22916;SDS011;11624;53.250;7.456;2023-07-31T08:26:29;21.80;;;6.43;;
22916;SDS011;11624;53.250;7.456;2023-07-31T08:28:57;20.23;;;6.53;;
22916;SDS011;11624;53.250;7.456;2023-07-31T08:31:26;18.10;;;5.22;;
22916;SDS011;11624;53.250;7.456;2023-07-31T08:33:57;20.58;;;5.60;;
22916;SDS011;11624;53.250;7.456;2023-07-31T08:36:25;18.85;;;5.00;;
22916;SDS011;11624;53.250;7.456;2023-07-31T08:38:56;17.70;;;4.88;;
22916;SDS011;11624;53.250;7.456;2023-07-31T08:41:24;14.48;;;4.00;;
22916;SDS011;11624;53.250;7.456;2023-07-31T08:43:52;13.35;;;3.78;;
22916;SDS011;11624;53.250;7.456;2023-07-31T08:46:22;12.02;;;3.53;;
22916;SDS011;11624;53.250;7.456;2023-07-31T08:48:51;12.60;;;3.35;;
22916;SDS011;11624;53.250;7.456;2023-07-31T08:51:22;11.43;;;3.00;;
22916;SDS011;11624;53.250;7.456;2023-07-31T08:53:50;13.75;;;3.53;;
22916;SDS011;11624;53.250;7.456;2023-07-31T08:56:18;14.43;;;3.38;;
22916;SDS011;11624;53.250;7.456;2023-07-31T08:58:47;11.00;;;3.28;;
22916;SDS011;11624;53.250;7.456;2023-07-31T09:01:17;10.68;;;3.13;;
22916;SDS011;11624;53.250;7.456;2023-07-31T09:03:45;7.35;;;2.67;;
22916;SDS011;11624;53.250;7.456;2023-07-31T09:06:15;12.98;;;3.03;;
22916;SDS011;11624;53.250;7.456;2023-07-31T09:08:47;13.60;;;3.28;;
22916;SDS011;11624;53.250;7.456;2023-07-31T09:11:16;9.65;;;3.25;;
22916;SDS011;11624;53.250;7.456;2023-07-31T09:13:45;13.50;;;3.47;;
22916;SDS011;11624;53.250;7.456;2023-07-31T09:16:13;12.60;;;3.47;;
22916;SDS011;11624;53.250;7.456;2023-07-31T09:18:52;14.65;;;3.28;;
22916;SDS011;11624;53.250;7.456;2023-07-31T09:21:23;10.75;;;3.25;;
22916;SDS011;11624;53.250;7.456;2023-07-31T09:23:53;12.32;;;3.10;;
22916;SDS011;11624;53.250;7.456;2023-07-31T09:26:28;9.20;;;3.05;;
22916;SDS011;11624;53.250;7.456;2023-07-31T09:28:57;12.80;;;3.22;;
22916;SDS011;11624;53.250;7.456;2023-07-31T09:31:32;12.82;;;3.67;;
22916;SDS011;11624;53.250;7.456;2023-07-31T09:34:05;7.88;;;2.70;;
22916;SDS011;11624;53.250;7.456;2023-07-31T09:36:39;9.30;;;3.28;;
22916;SDS011;11624;53.250;7.456;2023-07-31T09:39:10;11.90;;;3.85;;
22916;SDS011;11624;53.250;7.456;2023-07-31T09:41:41;10.90;;;3.20;;
22916;SDS011;11624;53.250;7.456;2023-07-31T09:44:11;8.48;;;2.88;;
22916;SDS011;11624;53.250;7.456;2023-07-31T09:46:41;9.07;;;3.45;;
22916;SDS011;11624;53.250;7.456;2023-07-31T09:49:10;11.02;;;3.30;;
22916;SDS011;11624;53.250;7.456;2023-07-31T09:51:40;8.32;;;3.50;;
22916;SDS011;11624;53.250;7.456;2023-07-31T09:54:11;9.27;;;3.53;;
22916;SDS011;11624;53.250;7.456;2023-07-31T09:56:41;9.93;;;3.15;;
22916;SDS011;11624;53.250;7.456;2023-07-31T09:59:12;10.65;;;3.10;;
22916;SDS011;11624;53.250;7.456;2023-07-31T10:01:41;10.70;;;3.03;;
22916;SDS011;11624;53.250;7.456;2023-07-31T10:04:10;9.63;;;3.22;;
22916;SDS011;11624;53.250;7.456;2023-07-31T10:06:40;8.52;;;2.92;;
22916;SDS011;11624;53.250;7.456;2023-07-31T10:09:13;10.63;;;2.53;;
22916;SDS011;11624;53.250;7.456;2023-07-31T10:11:46;9.52;;;2.80;;
22916;SDS011;11624;53.250;7.456;2023-07-31T10:14:17;8.90;;;2.47;;
22916;SDS011;11624;53.250;7.456;2023-07-31T10:16:47;6.28;;;2.42;;
22916;SDS011;11624;53.250;7.456;2023-07-31T10:19:17;8.73;;;2.65;;
22916;SDS011;11624;53.250;7.456;2023-07-31T10:21:46;7.15;;;2.30;;
22916;SDS011;11624;53.250;7.456;2023-07-31T10:24:17;7.72;;;2.67;;
22916;SDS011;11624;53.250;7.456;2023-07-31T10:26:45;6.90;;;2.10;;
22916;SDS011;11624;53.250;7.456;2023-07-31T10:29:16;5.57;;;2.33;;
22916;SDS011;11624;53.250;7.456;2023-07-31T10:31:46;6.47;;;2.42;;
22916;SDS011;11624;53.250;7.456;2023-07-31T10:34:15;6.07;;;2.30;;
22916;SDS011;11624;53.250;7.456;2023-07-31T10:36:44;5.10;;;2.17;;
22916;SDS011;11624;53.250;7.456;2023-07-31T10:42:12;6.22;;;2.35;;
22916;SDS011;11624;53.250;7.456;2023-07-31T10:44:43;4.15;;;1.55;;
22916;SDS011;11624;53.250;7.456;2023-07-31T10:47:14;3.72;;;1.25;;
22916;SDS011;11624;53.250;7.456;2023-07-31T10:49:44;2.42;;;1.25;;
22916;SDS011;11624;53.250;7.456;2023-07-31T10:52:13;3.95;;;1.05;;
22916;SDS011;11624;53.250;7.456;2023-07-31T10:55:01;3.58;;;1.10;;
22916;SDS011;11624;53.250;7.456;2023-07-31T10:57:44;0.98;;;0.88;;
22916;SDS011;11624;53.250;7.456;2023-07-31T11:00:20;2.47;;;0.85;;
22916;SDS011;11624;53.250;7.456;2023-07-31T11:02:56;1.50;;;0.85;;
22916;SDS011;11624;53.250;7.456;2023-07-31T11:05:44;1.58;;;0.90;;
22916;SDS011;11624;53.250;7.456;2023-07-31T11:08:21;1.50;;;0.75;;
22916;SDS011;11624;53.250;7.456;2023-07-31T11:11:04;1.10;;;0.80;;
22916;SDS011;11624;53.250;7.456;2023-07-31T11:13:33;1.05;;;0.80;;
22916;SDS011;11624;53.250;7.456;2023-07-31T11:16:07;2.40;;;0.95;;
22916;SDS011;11624;53.250;7.456;2023-07-31T11:18:38;2.88;;;1.13;;
22916;SDS011;11624;53.250;7.456;2023-07-31T11:21:07;1.63;;;1.00;;
22916;SDS011;11624;53.250;7.456;2023-07-31T11:23:36;2.53;;;0.90;;
22916;SDS011;11624;53.250;7.456;2023-07-31T11:26:07;1.50;;;1.00;;
22916;SDS011;11624;53.250;7.456;2023-07-31T11:28:35;1.77;;;0.90;;
22916;SDS011;11624;53.250;7.456;2023-07-31T11:31:04;2.00;;;1.20;;
22916;SDS011;11624;53.250;7.456;2023-07-31T11:33:36;1.73;;;0.90;;
22916;SDS011;11624;53.250;7.456;2023-07-31T11:36:04;2.55;;;1.10;;
22916;SDS011;11624;53.250;7.456;2023-07-31T11:38:33;2.35;;;1.10;;
22916;SDS011;11624;53.250;7.456;2023-07-31T11:41:02;1.55;;;1.10;;
22916;SDS011;11624;53.250;7.456;2023-07-31T11:43:33;3.08;;;1.23;;
22916;SDS011;11624;53.250;7.456;2023-07-31T11:46:03;1.55;;;1.10;;
22916;SDS011;11624;53.250;7.456;2023-07-31T11:48:34;2.20;;;1.20;;
22916;SDS011;11624;53.250;7.456;2023-07-31T11:51:04;3.47;;;1.67;;
22916;SDS011;11624;53.250;7.456;2023-07-31T11:53:35;3.40;;;1.30;;
22916;SDS011;11624;53.250;7.456;2023-07-31T11:56:05;2.03;;;1.38;;
22916;SDS011;11624;53.250;7.456;2023-07-31T11:58:39;1.73;;;1.30;;
22916;SDS011;11624;53.250;7.456;2023-07-31T12:01:10;1.40;;;1.10;;
22916;SDS011;11624;53.250;7.456;2023-07-31T12:03:42;2.15;;;1.30;;
22916;SDS011;11624;53.250;7.456;2023-07-31T12:06:12;1.20;;;0.30;;
22916;SDS011;11624;53.250;7.456;2023-07-31T12:08:40;0.00;;;0.00;;
22916;SDS011;11624;53.250;7.456;2023-07-31T12:11:09;0.10;;;0.10;;
22916;SDS011;11624;53.250;7.456;2023-07-31T12:13:39;0.00;;;0.00;;
22916;SDS011;11624;53.250;7.456;2023-07-31T12:16:07;0.20;;;0.20;;
22916;SDS011;11624;53.250;7.456;2023-07-31T12:18:36;0.00;;;0.00;;
22916;SDS011;11624;53.250;7.456;2023-07-31T12:21:05;0.10;;;0.10;;
22916;SDS011;11624;53.250;7.456;2023-07-31T12:23:35;0.00;;;0.00;;
22916;SDS011;11624;53.250;7.456;2023-07-31T12:26:04;0.10;;;0.10;;
22916;SDS011;11624;53.250;7.456;2023-07-31T12:28:37;0.00;;;0.00;;
22916;SDS011;11624;53.250;7.456;2023-07-31T12:31:08;0.10;;;0.10;;
22916;SDS011;11624;53.250;7.456;2023-07-31T12:33:39;0.00;;;0.00;;
22916;SDS011;11624;53.250;7.456;2023-07-31T12:36:09;0.00;;;0.00;;
22916;SDS011;11624;53.250;7.456;2023-07-31T12:38:38;0.00;;;0.00;;
22916;SDS011;11624;53.250;7.456;2023-07-31T12:41:07;0.00;;;0.00;;
22916;SDS011;11624;53.250;7.456;2023-07-31T12:43:35;0.00;;;0.00;;
22916;SDS011;11624;53.250;7.456;2023-07-31T12:46:06;0.20;;;0.20;;
22916;SDS011;11624;53.250;7.456;2023-07-31T12:48:35;0.10;;;0.10;;
22916;SDS011;11624;53.250;7.456;2023-07-31T12:51:04;0.20;;;0.20;;
22916;SDS011;11624;53.250;7.456;2023-07-31T12:53:34;0.75;;;0.20;;
22916;SDS011;11624;53.250;7.456;2023-07-31T12:56:02;0.00;;;0.00;;
22916;SDS011;11624;53.250;7.456;2023-07-31T12:58:31;0.08;;;0.08;;
22916;SDS011;11624;53.250;7.456;2023-07-31T13:00:59;0.00;;;0.00;;
22916;SDS011;11624;53.250;7.456;2023-07-31T13:03:30;0.00;;;0.00;;
22916;SDS011;11624;53.250;7.456;2023-07-31T13:05:58;0.32;;;0.15;;
22916;SDS011;11624;53.250;7.456;2023-07-31T13:08:26;0.00;;;0.00;;
22916;SDS011;11624;53.250;7.456;2023-07-31T13:10:54;0.00;;;0.00;;
22916;SDS011;11624;53.250;7.456;2023-07-31T13:13:22;0.90;;;0.45;;
22916;SDS011;11624;53.250;7.456;2023-07-31T13:15:51;0.55;;;0.25;;
22916;SDS011;11624;53.250;7.456;2023-07-31T13:18:19;0.32;;;0.20;;
22916;SDS011;11624;53.250;7.456;2023-07-31T13:20:48;0.00;;;0.00;;
22916;SDS011;11624;53.250;7.456;2023-07-31T13:23:17;0.10;;;0.10;;
22916;SDS011;11624;53.250;7.456;2023-07-31T13:25:45;0.17;;;0.17;;
22916;SDS011;11624;53.250;7.456;2023-07-31T13:28:13;0.05;;;0.05;;
22916;SDS011;11624;53.250;7.456;2023-07-31T13:30:41;0.57;;;0.30;;
22916;SDS011;11624;53.250;7.456;2023-07-31T13:33:10;0.00;;;0.00;;
22916;SDS011;11624;53.250;7.456;2023-07-31T13:35:59;1.65;;;0.65;;
22916;SDS011;11624;53.250;7.456;2023-07-31T13:38:28;0.00;;;0.00;;
22916;SDS011;11624;53.250;7.456;2023-07-31T13:40:57;0.00;;;0.00;;
22916;SDS011;11624;53.250;7.456;2023-07-31T13:43:25;0.00;;;0.00;;
22916;SDS011;11624;53.250;7.456;2023-07-31T13:45:53;0.10;;;0.10;;
22916;SDS011;11624;53.250;7.456;2023-07-31T13:48:22;0.20;;;0.20;;
22916;SDS011;11624;53.250;7.456;2023-07-31T13:50:50;0.15;;;0.15;;
22916;SDS011;11624;53.250;7.456;2023-07-31T13:53:20;0.05;;;0.05;;
22916;SDS011;11624;53.250;7.456;2023-07-31T13:55:48;0.00;;;0.00;;
22916;SDS011;11624;53.250;7.456;2023-07-31T13:58:17;0.00;;;0.00;;
22916;SDS011;11624;53.250;7.456;2023-07-31T14:00:45;0.20;;;0.20;;
22916;SDS011;11624;53.250;7.456;2023-07-31T14:03:13;0.03;;;0.03;;
22916;SDS011;11624;53.250;7.456;2023-07-31T14:05:42;0.65;;;0.30;;
22916;SDS011;11624;53.250;7.456;2023-07-31T14:08:12;0.40;;;0.28;;
22916;SDS011;11624;53.250;7.456;2023-07-31T14:10:42;0.10;;;0.10;;
22916;SDS011;11624;53.250;7.456;2023-07-31T14:13:10;0.40;;;0.38;;
22916;SDS011;11624;53.250;7.456;2023-07-31T14:15:39;1.35;;;0.52;;
22916;SDS011;11624;53.250;7.456;2023-07-31T14:18:11;1.10;;;0.57;;
22916;SDS011;11624;53.250;7.456;2023-07-31T14:20:39;0.38;;;0.30;;
22916;SDS011;11624;53.250;7.456;2023-07-31T14:23:08;1.45;;;0.45;;
22916;SDS011;11624;53.250;7.456;2023-07-31T14:25:56;0.38;;;0.30;;
22916;SDS011;11624;53.250;7.456;2023-07-31T14:29:33;0.55;;;0.55;;
22916;SDS011;11624;53.250;7.456;2023-07-31T14:32:03;0.57;;;0.50;;
22916;SDS011;11624;53.250;7.456;2023-07-31T14:34:34;0.20;;;0.20;;
22916;SDS011;11624;53.250;7.456;2023-07-31T14:37:11;0.20;;;0.20;;
22916;SDS011;11624;53.250;7.456;2023-07-31T14:39:39;0.85;;;0.45;;
22916;SDS011;11624;53.250;7.456;2023-07-31T14:42:09;1.55;;;0.30;;
22916;SDS011;11624;53.250;7.456;2023-07-31T14:44:37;0.10;;;0.10;;
22916;SDS011;11624;53.250;7.456;2023-07-31T14:47:08;0.17;;;0.17;;
22916;SDS011;11624;53.250;7.456;2023-07-31T14:49:37;0.43;;;0.28;;
22916;SDS011;11624;53.250;7.456;2023-07-31T14:52:05;0.00;;;0.00;;
22916;SDS011;11624;53.250;7.456;2023-07-31T14:54:34;2.67;;;1.13;;
22916;SDS011;11624;53.250;7.456;2023-07-31T14:57:03;0.00;;;0.00;;
22916;SDS011;11624;53.250;7.456;2023-07-31T14:59:34;0.30;;;0.25;;
22916;SDS011;11624;53.250;7.456;2023-07-31T15:02:03;0.43;;;0.43;;
22916;SDS011;11624;53.250;7.456;2023-07-31T15:04:31;0.25;;;0.25;;